Time;durP1;ratioP1;P1;durP2;ratioP2;P2;SDS_P1;SDS_P2;PMS_P1;PMS_P2;Temp;Humidity;BMP_temperature;BMP_pressure;BME280_temperature;BME280_humidity;BME280_pressure;Samples;Min_cycle;Max_cycle;Signal;HPM_P1;HPM_P2
2021/04/18 00:01:11;;;;;;;;;;;;;;;;;;5072850;28;19972;-79
2021/04/18 00:03:38;;;;;;;;;;;;;;;;;;5058335;28;19928;-80
2021/04/18 00:06:06;;;;;;;;;;;;;;;;;;5057891;28;20297;-80
2021/04/18 00:08:32;;;;;;;;;;;;;;;;;;5040443;28;19931;-80
2021/04/18 00:10:59;;;;;;;;;;;;;;;;;;5063055;28;20502;-80
2021/04/18 00:13:26;;;;;;;;;;;;;;;;;;5071388;28;19978;-79
2021/04/18 00:15:52;;;;;;;;;;;;;;;;;;5044420;28;20452;-79
2021/04/18 00:18:19;;;;;;;;;;;;;;;;;;5082746;28;19928;-80
2021/04/18 00:20:46;;;;;;;;;;;;;;;;;;5056519;28;19928;-79
2021/04/18 00:23:15;;;;;;;;;;;;;;;;;;5080911;28;19977;-80
2021/04/18 00:25:41;;;;;;;;;;;;;;;;;;5069763;28;20047;-80
2021/04/18 00:28:08;;;;;;;;;;;;;;;;;;5077050;28;19967;-80
2021/04/18 00:30:34;;;;;;;;;;;;;;;;;;5070935;28;19975;-80
2021/04/18 00:33:01;;;;;;;;;;;;;;;;;;5053244;28;19928;-79
2021/04/18 00:35:28;;;;;;;;;;;;;;;;;;5069598;28;19928;-80
2021/04/18 00:38:01;;;;;;;;;;;;;;;;;;5071014;28;19924;-79
2021/04/18 00:40:28;;;;;;;;;;;;;;;;;;5062869;28;19928;-80
2021/04/18 00:42:54;;;;;;;;;;;;;;;;;;5054260;28;19935;-80
2021/04/18 00:45:21;;;;;;;;;;;;;;;;;;5075497;28;20010;-80
2021/04/18 00:47:50;;;;;;;;;;;;;;;;;;5063034;28;20328;-80
2021/04/18 00:50:16;;;;;;;;;;;;;;;;;;5068475;28;19967;-80
2021/04/18 00:52:48;;;;;;;;;;;;;;;;;;5075498;28;19924;-80
2021/04/18 00:55:15;;;;;;;;;;;;;;;;;;5071603;28;19924;-80
2021/04/18 00:57:41;;;;;;;;;;;;;;;;;;5058946;28;19924;-80
2021/04/18 01:00:08;;;;;;;;;;;;;;;;;;5061325;28;20024;-80
2021/04/18 01:02:35;;;;;;;;;;;;;;;;;;5070571;28;20010;-80
2021/04/18 01:05:01;;;;;;;;;;;;;;;;;;5077941;28;19992;-80
2021/04/18 01:07:28;;;;;;;;;;;;;;;;;;5061522;28;19928;-80
2021/04/18 01:09:54;;;;;;;;;;;;;;;;;;5066050;28;20324;-80
2021/04/18 01:12:21;;;;;;;;;;;;;;;;;;5068149;28;19924;-79
2021/04/18 01:14:48;;;;;;;;;;;;;;;;;;5079345;28;20035;-80
2021/04/18 01:17:14;;;;;;;;;;;;;;;;;;5051348;28;20063;-80
2021/04/18 01:19:41;;;;;;;;;;;;;;;;;;5066908;28;19925;-80
2021/04/18 01:22:08;;;;;;;;;;;;;;;;;;5051374;28;20019;-79
2021/04/18 01:24:35;;;;;;;;;;;;;;;;;;5052939;28;19925;-79
2021/04/18 01:27:03;;;;;;;;;;;;;;;;;;5031599;28;20023;-80
2021/04/18 01:29:32;;;;;;;;;;;;;;;;;;5032965;28;20070;-80
2021/04/18 01:31:59;;;;;;;;;;;;;;;;;;5052666;28;20679;-80
2021/04/18 01:34:25;;;;;;;;;;;;;;;;;;5041990;28;19931;-81
2021/04/18 01:36:52;;;;;;;;;;;;;;;;;;5049322;28;19967;-80
2021/04/18 01:39:18;;;;;;;;;;;;;;;;;;5052048;28;19925;-81
2021/04/18 01:41:45;;;;;;;;;;;;;;;;;;5036178;28;20023;-80
2021/04/18 01:44:12;;;;;;;;;;;;;;;;;;5051883;28;20040;-80
2021/04/18 01:46:39;;;;;;;;;;;;;;;;;;5037984;28;20048;-80
2021/04/18 01:49:06;;;;;;;;;;;;;;;;;;5054245;28;20313;-79
2021/04/18 01:51:32;;;;;;;;;;;;;;;;;;5053133;28;19951;-80
2021/04/18 01:53:59;;;;;;;;;;;;;;;;;;5035793;28;20026;-80
2021/04/18 01:56:25;;;;;;;;;;;;;;;;;;5035560;28;19925;-80
2021/04/18 01:58:53;;;;;;;;;;;;;;;;;;5036830;28;19967;-80
2021/04/18 02:01:20;;;;;;;;;;;;;;;;;;5035979;28;19929;-80
2021/04/18 02:03:47;;;;;;;;;;;;;;;;;;5050111;28;19924;-80
2021/04/18 02:06:16;;;;;;;;;;;;;;;;;;5054477;28;20441;-80
2021/04/18 02:08:43;;;;;;;;;;;;;;;;;;5038690;28;19967;-80
2021/04/18 02:11:09;;;;;;;;;;;;;;;;;;5035033;28;19926;-80
2021/04/18 02:16:08;;;;;;;;;;;;;;;;;;5053876;28;19929;-80
2021/04/18 02:18:35;;;;;;;;;;;;;;;;;;5053795;28;20293;-80
2021/04/18 02:21:03;;;;;;;;;;;;;;;;;;5050510;28;19925;-80
2021/04/18 02:23:29;;;;;;;;;;;;;;;;;;5050187;28;20000;-80
2021/04/18 02:25:56;;;;;;;;;;;;;;;;;;5046281;28;20735;-80
2021/04/18 02:28:23;;;;;;;;;;;;;;;;;;5045437;28;19929;-80
2021/04/18 02:30:49;;;;;;;;;;;;;;;;;;5045765;28;19946;-81
2021/04/18 02:33:16;;;;;;;;;;;;;;;;;;5051819;28;19946;-80
2021/04/18 02:35:42;;;;;;;;;;;;;;;;;;5040085;28;19924;-80
2021/04/18 02:38:09;;;;;;;;;;;;;;;;;;5024897;28;19932;-80
2021/04/18 02:40:36;;;;;;;;;;;;;;;;;;5043924;28;20039;-80
2021/04/18 02:43:02;;;;;;;;;;;;;;;;;;5048165;28;20100;-80
2021/04/18 02:45:29;;;;;;;;;;;;;;;;;;5045842;28;20691;-80
2021/04/18 02:47:55;;;;;;;;;;;;;;;;;;5032588;28;19925;-81
2021/04/18 02:50:23;;;;;;;;;;;;;;;;;;5045523;28;19979;-81
2021/04/18 02:52:49;;;;;;;;;;;;;;;;;;5049950;28;19935;-80
2021/04/18 02:55:16;;;;;;;;;;;;;;;;;;5028338;28;20326;-81
2021/04/18 02:57:43;;;;;;;;;;;;;;;;;;5043808;28;19935;-81
2021/04/18 03:00:09;;;;;;;;;;;;;;;;;;5046664;28;20066;-80
2021/04/18 03:02:36;;;;;;;;;;;;;;;;;;5032481;28;19961;-81
2021/04/18 03:05:03;;;;;;;;;;;;;;;;;;5044007;28;19925;-81
2021/04/18 03:07:31;;;;;;;;;;;;;;;;;;5051973;28;19971;-81
2021/04/18 03:09:58;;;;;;;;;;;;;;;;;;5052868;28;20337;-81
2021/04/18 03:12:25;;;;;;;;;;;;;;;;;;5030523;28;19979;-81
2021/04/18 03:14:52;;;;;;;;;;;;;;;;;;5046150;28;20020;-80
2021/04/18 03:17:19;;;;;;;;;;;;;;;;;;5043567;28;19976;-83
2021/04/18 03:19:45;;;;;;;;;;;;;;;;;;5052746;28;20385;-80
2021/04/18 03:22:13;;;;;;;;;;;;;;;;;;5045729;28;19983;-80
2021/04/18 03:24:40;;;;;;;;;;;;;;;;;;5051368;28;19928;-80
2021/04/18 03:27:07;;;;;;;;;;;;;;;;;;5031891;28;20007;-80
2021/04/18 03:29:33;;;;;;;;;;;;;;;;;;5041925;28;20015;-80
2021/04/18 03:32:00;;;;;;;;;;;;;;;;;;5049607;28;19971;-80
2021/04/18 03:34:26;;;;;;;;;;;;;;;;;;5026974;28;19940;-80
2021/04/18 03:36:53;;;;;;;;;;;;;;;;;;5049256;28;19967;-80
2021/04/18 03:39:20;;;;;;;;;;;;;;;;;;5037853;28;19968;-81
2021/04/18 03:41:46;;;;;;;;;;;;;;;;;;5051892;28;20024;-80
2021/04/18 03:44:13;;;;;;;;;;;;;;;;;;5052681;28;20351;-81
2021/04/18 03:46:39;;;;;;;;;;;;;;;;;;5050975;28;20357;-80
2021/04/18 03:49:06;;;;;;;;;;;;;;;;;;5024394;28;20011;-80
2021/04/18 03:51:45;;;;;;;;;;;;;;;;;;5039716;28;20034;-79
2021/04/18 03:54:11;;;;;;;;;;;;;;;;;;5048168;28;20019;-80
2021/04/18 03:56:38;;;;;;;;;;;;;;;;;;5025699;28;19968;-80
2021/04/18 03:59:04;;;;;;;;;;;;;;;;;;5044861;28;20032;-80
2021/04/18 04:01:31;;;;;;;;;;;;;;;;;;5043320;28;20342;-80
2021/04/18 04:03:58;;;;;;;;;;;;;;;;;;5048941;28;19933;-79
2021/04/18 04:06:25;;;;;;;;;;;;;;;;;;5051523;28;19941;-81
2021/04/18 04:08:52;;;;;;;;;;;;;;;;;;5033626;28;20019;-81
2021/04/18 04:11:18;;;;;;;;;;;;;;;;;;5046103;28;19963;-80
2021/04/18 04:13:45;;;;;;;;;;;;;;;;;;5046684;28;19964;-79
2021/04/18 04:16:11;;;;;;;;;;;;;;;;;;5045532;28;19979;-78
2021/04/18 04:18:39;;;;;;;;;;;;;;;;;;5040809;28;19983;-79
2021/04/18 04:21:05;;;;;;;;;;;;;;;;;;5044125;28;20027;-81
2021/04/18 04:23:32;;;;;;;;;;;;;;;;;;5044428;28;19964;-82
2021/04/18 04:26:00;;;;;;;;;;;;;;;;;;5045988;28;19991;-82
2021/04/18 04:28:27;;;;;;;;;;;;;;;;;;5033903;28;19974;-81
2021/04/18 04:30:53;;;;;;;;;;;;;;;;;;5051168;28;20033;-82
2021/04/18 04:33:20;;;;;;;;;;;;;;;;;;5050299;28;20328;-80
2021/04/18 04:35:46;;;;;;;;;;;;;;;;;;5027513;28;19975;-79
2021/04/18 04:38:13;;;;;;;;;;;;;;;;;;5050471;28;19925;-79
2021/04/18 04:40:40;;;;;;;;;;;;;;;;;;5046108;28;19932;-79
2021/04/18 04:43:06;;;;;;;;;;;;;;;;;;5051521;28;20048;-79
2021/04/18 04:45:33;;;;;;;;;;;;;;;;;;5049133;28;19975;-79
2021/04/18 04:47:59;;;;;;;;;;;;;;;;;;5049398;28;19925;-80
2021/04/18 04:50:26;;;;;;;;;;;;;;;;;;5048584;28;19925;-80
2021/04/18 04:52:57;;;;;;;;;;;;;;;;;;5050569;28;19978;-80
2021/04/18 04:55:23;;;;;;;;;;;;;;;;;;5030612;28;20013;-80
2021/04/18 04:57:50;;;;;;;;;;;;;;;;;;5048194;28;20349;-81
2021/04/18 05:00:17;;;;;;;;;;;;;;;;;;5044516;28;19929;-80
2021/04/18 05:02:43;;;;;;;;;;;;;;;;;;5051570;28;19924;-81
2021/04/18 05:05:10;;;;;;;;;;;;;;;;;;5047852;28;20064;-81
2021/04/18 05:07:37;;;;;;;;;;;;;;;;;;5054781;28;20011;-81
2021/04/18 05:10:03;;;;;;;;;;;;;;;;;;5046480;28;20385;-80
2021/04/18 05:12:30;;;;;;;;;;;;;;;;;;5036586;28;20054;-81
2021/04/18 05:14:57;;;;;;;;;;;;;;;;;;5052696;28;20377;-81
2021/04/18 05:17:23;;;;;;;;;;;;;;;;;;5036738;28;20026;-81
2021/04/18 05:19:50;;;;;;;;;;;;;;;;;;5044593;28;19936;-81
2021/04/18 05:22:17;;;;;;;;;;;;;;;;;;5051401;28;19972;-81
2021/04/18 05:24:43;;;;;;;;;;;;;;;;;;5051396;28;20031;-81
2021/04/18 05:27:10;;;;;;;;;;;;;;;;;;5046065;28;19968;-80
2021/04/18 05:29:36;;;;;;;;;;;;;;;;;;5046120;28;19979;-80
2021/04/18 05:32:03;;;;;;;;;;;;;;;;;;5048924;28;20008;-80
2021/04/18 05:34:30;;;;;;;;;;;;;;;;;;5055476;28;19983;-81
2021/04/18 05:36:57;;;;;;;;;;;;;;;;;;5036016;28;20003;-81
2021/04/18 05:39:24;;;;;;;;;;;;;;;;;;5054890;28;20580;-81
2021/04/18 05:41:53;;;;;;;;;;;;;;;;;;5037083;28;19963;-81
2021/04/18 05:44:19;;;;;;;;;;;;;;;;;;5031382;28;20020;-81
2021/04/18 05:46:47;;;;;;;;;;;;;;;;;;5026887;28;20385;-81
2021/04/18 05:49:14;;;;;;;;;;;;;;;;;;5037100;28;19924;-81
2021/04/18 05:51:40;;;;;;;;;;;;;;;;;;5032377;28;20019;-81
2021/04/18 05:54:07;;;;;;;;;;;;;;;;;;5045195;28;19925;-82
2021/04/18 05:56:35;;;;;;;;;;;;;;;;;;5054460;28;20019;-81
2021/04/18 05:59:01;;;;;;;;;;;;;;;;;;5033901;28;20014;-82
2021/04/18 06:01:29;;;;;;;;;;;;;;;;;;5052303;28;19929;-81
2021/04/18 06:03:56;;;;;;;;;;;;;;;;;;5054246;28;19924;-81
2021/04/18 06:06:23;;;;;;;;;;;;;;;;;;5033140;28;21116;-81
2021/04/18 06:08:49;;;;;;;;;;;;;;;;;;5044369;28;19980;-81
2021/04/18 06:11:19;;;;;;;;;;;;;;;;;;5052588;28;20655;-82
2021/04/18 06:13:46;;;;;;;;;;;;;;;;;;5035662;28;19964;-81
2021/04/18 06:16:13;;;;;;;;;;;;;;;;;;5053276;28;20277;-81
2021/04/18 06:18:40;;;;;;;;;;;;;;;;;;5035121;28;19925;-81
2021/04/18 06:21:07;;;;;;;;;;;;;;;;;;5033401;28;19925;-81
2021/04/18 06:23:33;;;;;;;;;;;;;;;;;;5053231;28;19964;-81
2021/04/18 06:26:00;;;;;;;;;;;;;;;;;;5030424;28;19932;-81
2021/04/18 06:28:27;;;;;;;;;;;;;;;;;;5031215;28;19937;-81
2021/04/18 06:30:54;;;;;;;;;;;;;;;;;;5034358;28;20667;-82
2021/04/18 06:33:27;;;;;;;;;;;;;;;;;;5045357;28;19925;-81
2021/04/18 06:35:53;;;;;;;;;;;;;;;;;;5034676;28;20371;-82
2021/04/18 06:38:20;;;;;;;;;;;;;;;;;;5052453;28;20465;-82
2021/04/18 06:40:46;;;;;;;;;;;;;;;;;;5045470;28;20018;-81
2021/04/18 06:43:14;;;;;;;;;;;;;;;;;;5035313;28;19967;-81
2021/04/18 06:45:41;;;;;;;;;;;;;;;;;;5051405;28;19929;-83
2021/04/18 06:48:09;;;;;;;;;;;;;;;;;;5028248;28;19935;-82
2021/04/18 06:50:36;;;;;;;;;;;;;;;;;;5027878;28;20492;-81
2021/04/18 06:55:58;;;;;;;;;;;;;;;;;;5081919;28;19925;-79
2021/04/18 06:58:26;;;;;;;;;;;;;;;;;;5068916;28;19974;-79
2021/04/18 07:01:00;;;;;;;;;;;;;;;;;;5082826;28;19931;-92
2021/04/18 07:03:26;;;;;;;;;;;;;;;;;;5066844;28;19938;-83
2021/04/18 07:05:57;;;;;;;;;;;;;;;;;;5082113;28;19925;-82
2021/04/18 07:08:24;;;;;;;;;;;;;;;;;;5069688;28;19924;-82
2021/04/18 07:10:59;;;;;;;;;;;;;;;;;;5066248;28;19924;-85
2021/04/18 07:13:26;;;;;;;;;;;;;;;;;;5072937;28;20444;-84
2021/04/18 07:15:53;;;;;;;;;;;;;;;;;;5068997;28;20007;-85
2021/04/18 07:18:20;;;;;;;;;;;;;;;;;;5063880;28;19925;-84
2021/04/18 07:20:47;;;;;;;;;;;;;;;;;;5067373;28;19950;-83
2021/04/18 07:23:13;;;;;;;;;;;;;;;;;;5063119;28;20054;-85
2021/04/18 07:25:40;;;;;;;;;;;;;;;;;;5065911;28;20430;-83
2021/04/18 07:28:08;;;;;;;;;;;;;;;;;;5062404;28;19981;-82
2021/04/18 07:30:35;;;;;;;;;;;;;;;;;;5089421;28;20563;-83
2021/04/18 07:33:02;;;;;;;;;;;;;;;;;;5080773;28;19982;-79
2021/04/18 07:35:29;;;;;;;;;;;;;;;;;;5068988;28;19974;-77
2021/04/18 07:37:57;;;;;;;;;;;;;;;;;;5067321;28;20023;-78
2021/04/18 07:40:24;;;;;;;;;;;;;;;;;;5065751;28;20019;-92
2021/04/18 07:42:52;;;;;;;;;;;;;;;;;;5064015;28;19924;-86
2021/04/18 07:45:20;;;;;;;;;;;;;;;;;;5067293;28;19963;-84
2021/04/18 07:47:47;;;;;;;;;;;;;;;;;;5072741;28;20003;-89
2021/04/18 07:50:14;;;;;;;;;;;;;;;;;;5085015;28;19924;-88
2021/04/18 07:52:41;;;;;;;;;;;;;;;;;;5083161;28;20347;-89
2021/04/18 07:55:09;;;;;;;;;;;;;;;;;;5072981;28;19924;-93
2021/04/18 07:57:36;;;;;;;;;;;;;;;;;;5076914;28;19924;-86
2021/04/18 08:00:03;;;;;;;;;;;;;;;;;;5071871;28;19930;-89
2021/04/18 08:02:32;;;;;;;;;;;;;;;;;;5063936;28;19967;-89
2021/04/18 08:04:59;;;;;;;;;;;;;;;;;;5070738;28;19935;-88
2021/04/18 08:07:26;;;;;;;;;;;;;;;;;;5075311;28;19960;-83
2021/04/18 08:09:53;;;;;;;;;;;;;;;;;;5093596;28;19982;-89
2021/04/18 08:12:19;;;;;;;;;;;;;;;;;;5074527;28;19924;-86
2021/04/18 08:14:51;;;;;;;;;;;;;;;;;;5064279;28;19930;-88
2021/04/18 08:17:17;;;;;;;;;;;;;;;;;;5076199;28;20644;-87
2021/04/18 08:19:58;;;;;;;;;;;;;;;;;;5072209;28;19936;-90
2021/04/18 08:22:25;;;;;;;;;;;;;;;;;;5069237;28;19930;-88
2021/04/18 08:25:00;;;;;;;;;;;;;;;;;;5062394;28;20137;-88
2021/04/18 08:27:26;;;;;;;;;;;;;;;;;;5087551;28;20387;-86
2021/04/18 08:32:25;;;;;;;;;;;;;;;;;;5086712;28;20015;-84
2021/04/18 08:34:53;;;;;;;;;;;;;;;;;;5063655;28;20665;-87
2021/04/18 08:37:20;;;;;;;;;;;;;;;;;;5061603;28;19956;-85
2021/04/18 08:39:47;;;;;;;;;;;;;;;;;;5071545;28;19924;-89
2021/04/18 08:42:14;;;;;;;;;;;;;;;;;;5055166;28;20611;-87
2021/04/18 08:44:42;;;;;;;;;;;;;;;;;;5070787;28;19966;-83
2021/04/18 08:47:09;;;;;;;;;;;;;;;;;;5066906;28;19928;-83
2021/04/18 08:49:35;;;;;;;;;;;;;;;;;;5066818;28;20012;-83
2021/04/18 08:52:04;;;;;;;;;;;;;;;;;;5089994;23;21371;-78
2021/04/18 08:54:30;;;;;;;;;;;;;;;;;;5070079;28;20007;-79
2021/04/18 08:56:58;;;;;;;;;;;;;;;;;;5056032;28;20011;-83
2021/04/18 08:59:24;;;;;;;;;;;;;;;;;;5067744;28;19924;-82
2021/04/18 09:01:51;;;;;;;;;;;;;;;;;;5067357;28;20447;-83
2021/04/18 09:04:24;;;;;;;;;;;;;;;;;;5057291;28;19929;-85
2021/04/18 09:06:51;;;;;;;;;;;;;;;;;;5061193;28;19925;-86
2021/04/18 09:09:18;;;;;;;;;;;;;;;;;;5072047;28;19963;-87
2021/04/18 09:11:47;;;;;;;;;;;;;;;;;;5067026;28;20003;-81
2021/04/18 09:14:24;;;;;;;;;;;;;;;;;;5068835;28;20015;-81
2021/04/18 09:16:56;;;;;;;;;;;;;;;;;;5061973;28;19994;-81
2021/04/18 09:19:25;;;;;;;;;;;;;;;;;;5063843;28;19975;-80
2021/04/18 09:21:53;;;;;;;;;;;;;;;;;;5067266;28;20066;-81
2021/04/18 09:24:20;;;;;;;;;;;;;;;;;;5066876;28;19964;-82
2021/04/18 09:26:47;;;;;;;;;;;;;;;;;;5068464;28;19990;-82
2021/04/18 09:29:13;;;;;;;;;;;;;;;;;;5069113;28;19932;-82
2021/04/18 09:31:40;;;;;;;;;;;;;;;;;;5053937;28;20620;-81
2021/04/18 09:34:07;;;;;;;;;;;;;;;;;;5061515;28;19931;-80
2021/04/18 09:36:34;;;;;;;;;;;;;;;;;;5065650;28;20027;-79
2021/04/18 09:39:01;;;;;;;;;;;;;;;;;;5058132;28;19998;-80
2021/04/18 09:41:30;;;;;;;;;;;;;;;;;;5057150;28;19928;-81
2021/04/18 09:43:59;;;;;;;;;;;;;;;;;;5059851;28;19963;-79
2021/04/18 09:46:25;;;;;;;;;;;;;;;;;;5066237;28;20018;-77
2021/04/18 09:48:52;;;;;;;;;;;;;;;;;;5062428;28;19925;-80
2021/04/18 09:51:19;;;;;;;;;;;;;;;;;;5062323;28;19925;-80
2021/04/18 09:53:45;;;;;;;;;;;;;;;;;;5068440;28;19974;-81
2021/04/18 09:56:12;;;;;;;;;;;;;;;;;;5070580;28;19951;-79
2021/04/18 09:58:39;;;;;;;;;;;;;;;;;;5072478;28;20011;-80
2021/04/18 10:01:05;;;;;;;;;;;;;;;;;;5072091;28;19954;-80
2021/04/18 10:03:32;;;;;;;;;;;;;;;;;;5069438;28;19933;-79
2021/04/18 10:05:59;;;;;;;;;;;;;;;;;;5067491;28;19928;-79
2021/04/18 10:08:26;;;;;;;;;;;;;;;;;;5067637;28;19980;-79
2021/04/18 10:10:53;;;;;;;;;;;;;;;;;;5069362;28;20019;-79
2021/04/18 10:13:21;;;;;;;;;;;;;;;;;;5056709;28;20023;-81
2021/04/18 10:15:47;;;;;;;;;;;;;;;;;;5069726;28;20430;-80
2021/04/18 10:18:17;;;;;;;;;;;;;;;;;;5056287;28;19925;-80
2021/04/18 10:20:44;;;;;;;;;;;;;;;;;;5072215;28;19947;-81
2021/04/18 10:23:11;;;;;;;;;;;;;;;;;;5065668;28;19972;-80
2021/04/18 10:25:39;;;;;;;;;;;;;;;;;;5067607;28;19924;-81
2021/04/18 10:28:05;;;;;;;;;;;;;;;;;;5065769;28;19932;-81
2021/04/18 10:30:32;;;;;;;;;;;;;;;;;;5065243;28;19924;-81
2021/04/18 10:32:59;;;;;;;;;;;;;;;;;;5060622;28;19956;-80
2021/04/18 10:35:26;;;;;;;;;;;;;;;;;;5067359;28;19928;-80
2021/04/18 10:37:52;;;;;;;;;;;;;;;;;;5071781;28;20058;-80
2021/04/18 10:40:22;;;;;;;;;;;;;;;;;;5072129;28;19952;-83
2021/04/18 10:42:52;;;;;;;;;;;;;;;;;;5067994;28;19979;-84
2021/04/18 10:45:18;;;;;;;;;;;;;;;;;;5073053;28;20011;-83
2021/04/18 10:47:45;;;;;;;;;;;;;;;;;;5073049;28;19976;-84
2021/04/18 10:50:12;;;;;;;;;;;;;;;;;;5066262;28;21413;-85
2021/04/18 10:52:39;;;;;;;;;;;;;;;;;;5060350;28;19979;-81
2021/04/18 10:55:06;;;;;;;;;;;;;;;;;;5062683;28;20027;-79
2021/04/18 10:57:36;;;;;;;;;;;;;;;;;;5065676;28;19960;-81
2021/04/18 11:00:05;;;;;;;;;;;;;;;;;;5066528;28;19963;-81
2021/04/18 11:02:32;;;;;;;;;;;;;;;;;;5065719;28;20314;-79
2021/04/18 11:04:59;;;;;;;;;;;;;;;;;;5060508;28;19925;-80
2021/04/18 11:07:25;;;;;;;;;;;;;;;;;;5069374;28;20369;-79
2021/04/18 11:09:53;;;;;;;;;;;;;;;;;;5061445;28;19963;-80
2021/04/18 11:12:20;;;;;;;;;;;;;;;;;;5068421;28;19933;-82
2021/04/18 11:14:49;;;;;;;;;;;;;;;;;;5062711;28;20413;-81
2021/04/18 11:17:15;;;;;;;;;;;;;;;;;;5081723;28;20039;-80
2021/04/18 11:19:42;;;;;;;;;;;;;;;;;;5062407;28;19929;-79
2021/04/18 11:22:09;;;;;;;;;;;;;;;;;;5061105;28;19925;-80
2021/04/18 11:24:36;;;;;;;;;;;;;;;;;;5057002;28;20008;-79
2021/04/18 11:27:02;;;;;;;;;;;;;;;;;;5055809;28;20522;-78
2021/04/18 11:29:31;;;;;;;;;;;;;;;;;;5058886;28;20271;-81
2021/04/18 11:31:59;;;;;;;;;;;;;;;;;;5061914;28;19943;-79
2021/04/18 11:34:26;;;;;;;;;;;;;;;;;;5061787;28;19933;-79
2021/04/18 11:36:52;;;;;;;;;;;;;;;;;;5061927;28;20396;-79
2021/04/18 11:39:20;;;;;;;;;;;;;;;;;;5069471;28;20027;-80
2021/04/18 11:41:47;;;;;;;;;;;;;;;;;;5062685;28;19924;-78
2021/04/18 11:44:15;;;;;;;;;;;;;;;;;;5069864;28;19963;-77
2021/04/18 11:46:42;;;;;;;;;;;;;;;;;;5057234;28;20335;-78
2021/04/18 11:49:14;;;;;;;;;;;;;;;;;;5060406;28;20428;-79
2021/04/18 11:51:41;;;;;;;;;;;;;;;;;;5060440;28;19964;-79
2021/04/18 11:54:23;;;;;;;;;;;;;;;;;;5057674;28;19932;-82
2021/04/18 11:56:56;;;;;;;;;;;;;;;;;;5065399;28;19933;-81
2021/04/18 11:59:23;;;;;;;;;;;;;;;;;;5067003;28;19924;-84
2021/04/18 12:01:49;;;;;;;;;;;;;;;;;;5070987;28;19936;-82
2021/04/18 12:04:17;;;;;;;;;;;;;;;;;;5062980;28;19931;-82
2021/04/18 12:06:44;;;;;;;;;;;;;;;;;;5068211;28;19932;-85
2021/04/18 12:09:10;;;;;;;;;;;;;;;;;;5064881;28;20007;-82
2021/04/18 12:11:38;;;;;;;;;;;;;;;;;;5061576;28;19932;-83
2021/04/18 12:14:07;;;;;;;;;;;;;;;;;;5073098;28;19928;-82
2021/04/18 12:16:34;;;;;;;;;;;;;;;;;;5075355;28;19939;-84
2021/04/18 12:19:01;;;;;;;;;;;;;;;;;;5071250;28;19954;-81
2021/04/18 12:21:27;;;;;;;;;;;;;;;;;;5069458;28;19929;-80
2021/04/18 12:23:56;;;;;;;;;;;;;;;;;;5073582;28;19924;-81
2021/04/18 12:26:23;;;;;;;;;;;;;;;;;;5075035;28;19925;-81
2021/04/18 12:28:50;;;;;;;;;;;;;;;;;;5071336;28;19932;-80
2021/04/18 12:31:17;;;;;;;;;;;;;;;;;;5073887;28;19946;-85
2021/04/18 12:33:45;;;;;;;;;;;;;;;;;;5068564;28;19929;-84
2021/04/18 12:36:13;;;;;;;;;;;;;;;;;;5069972;28;19928;-87
2021/04/18 12:38:39;;;;;;;;;;;;;;;;;;5070149;28;20430;-86
2021/04/18 12:41:08;;;;;;;;;;;;;;;;;;5063097;28;19928;-81
2021/04/18 12:43:35;;;;;;;;;;;;;;;;;;5060950;28;19951;-81
2021/04/18 12:46:03;;;;;;;;;;;;;;;;;;5064193;28;19984;-81
2021/04/18 12:48:29;;;;;;;;;;;;;;;;;;5074273;28;19929;-81
2021/04/18 12:50:59;;;;;;;;;;;;;;;;;;5074406;28;19970;-82
2021/04/18 12:53:27;;;;;;;;;;;;;;;;;;5073713;28;19950;-80
2021/04/18 12:55:59;;;;;;;;;;;;;;;;;;5069513;28;19929;-81
2021/04/18 12:58:25;;;;;;;;;;;;;;;;;;5072669;28;20054;-79
2021/04/18 13:00:53;;;;;;;;;;;;;;;;;;5071421;28;19924;-82
2021/04/18 13:03:21;;;;;;;;;;;;;;;;;;5074221;28;20019;-84
2021/04/18 13:05:49;;;;;;;;;;;;;;;;;;5065599;28;19928;-86
2021/04/18 13:08:20;;;;;;;;;;;;;;;;;;5071732;28;19932;-87
2021/04/18 13:10:46;;;;;;;;;;;;;;;;;;5074071;28;19977;-87
2021/04/18 13:13:13;;;;;;;;;;;;;;;;;;5071387;28;19935;-85
2021/04/18 13:15:40;;;;;;;;;;;;;;;;;;5074902;28;19954;-87
2021/04/18 13:18:09;;;;;;;;;;;;;;;;;;5069850;28;19928;-86
2021/04/18 13:20:36;;;;;;;;;;;;;;;;;;5076443;28;19946;-86
2021/04/18 13:23:04;;;;;;;;;;;;;;;;;;5070032;28;19959;-82
2021/04/18 13:25:31;;;;;;;;;;;;;;;;;;5069299;28;19932;-82
2021/04/18 13:28:00;;;;;;;;;;;;;;;;;;5073379;28;20083;-86
2021/04/18 13:30:28;;;;;;;;;;;;;;;;;;5069678;28;19948;-86
2021/04/18 13:32:55;;;;;;;;;;;;;;;;;;5074597;28;20398;-86
2021/04/18 13:35:22;;;;;;;;;;;;;;;;;;5068454;28;19928;-85
2021/04/18 13:37:51;;;;;;;;;;;;;;;;;;5072006;28;19924;-86
2021/04/18 13:40:20;;;;;;;;;;;;;;;;;;5071456;28;20011;-87
2021/04/18 13:42:53;;;;;;;;;;;;;;;;;;5068991;28;19935;-87
2021/04/18 13:45:22;;;;;;;;;;;;;;;;;;5071808;28;20629;-82
2021/04/18 13:47:49;;;;;;;;;;;;;;;;;;5064488;28;19968;-82
2021/04/18 13:50:26;;;;;;;;;;;;;;;;;;5071250;28;19925;-82
2021/04/18 13:52:55;;;;;;;;;;;;;;;;;;5068011;28;19983;-82
2021/04/18 13:55:21;;;;;;;;;;;;;;;;;;5068750;28;19924;-82
2021/04/18 13:57:49;;;;;;;;;;;;;;;;;;5070769;28;20331;-82
2021/04/18 14:00:19;;;;;;;;;;;;;;;;;;5073408;28;19968;-83
2021/04/18 14:02:45;;;;;;;;;;;;;;;;;;5072122;28;20375;-83
2021/04/18 14:05:13;;;;;;;;;;;;;;;;;;5070057;28;19986;-85
2021/04/18 14:07:49;;;;;;;;;;;;;;;;;;5067427;28;20268;-83
2021/04/18 14:10:16;;;;;;;;;;;;;;;;;;5072326;28;19924;-84
2021/04/18 14:12:44;;;;;;;;;;;;;;;;;;5075467;28;19984;-84
2021/04/18 14:15:11;;;;;;;;;;;;;;;;;;5070110;28;19974;-85
2021/04/18 14:17:38;;;;;;;;;;;;;;;;;;5061806;28;19932;-84
2021/04/18 14:20:05;;;;;;;;;;;;;;;;;;5057273;28;19935;-84
2021/04/18 14:22:31;;;;;;;;;;;;;;;;;;5059715;28;20094;-84
2021/04/18 14:24:58;;;;;;;;;;;;;;;;;;5067478;28;20015;-85
2021/04/18 14:27:26;;;;;;;;;;;;;;;;;;5063265;28;19932;-85
2021/04/18 14:29:53;;;;;;;;;;;;;;;;;;5071279;28;19966;-84
2021/04/18 14:32:20;;;;;;;;;;;;;;;;;;5061129;28;20017;-84
2021/04/18 14:34:51;;;;;;;;;;;;;;;;;;5068031;28;19929;-83
2021/04/18 14:37:18;;;;;;;;;;;;;;;;;;5065987;28;19967;-84
2021/04/18 14:39:46;;;;;;;;;;;;;;;;;;5064182;28;19983;-81
2021/04/18 14:42:15;;;;;;;;;;;;;;;;;;5070226;28;20412;-84
2021/04/18 14:44:43;;;;;;;;;;;;;;;;;;5070812;28;19932;-86
2021/04/18 14:47:12;;;;;;;;;;;;;;;;;;5067498;28;19967;-84
2021/04/18 14:49:39;;;;;;;;;;;;;;;;;;5063455;28;19947;-84
2021/04/18 14:52:06;;;;;;;;;;;;;;;;;;5064156;28;19924;-87
2021/04/18 14:54:33;;;;;;;;;;;;;;;;;;5068168;28;20775;-85
2021/04/18 14:57:00;;;;;;;;;;;;;;;;;;5066155;28;19925;-87
2021/04/18 14:59:27;;;;;;;;;;;;;;;;;;5072041;28;20005;-85
2021/04/18 15:01:53;;;;;;;;;;;;;;;;;;5066224;28;19967;-82
2021/04/18 15:04:21;;;;;;;;;;;;;;;;;;5060039;28;19929;-87
2021/04/18 15:06:47;;;;;;;;;;;;;;;;;;5065083;28;20645;-85
2021/04/18 15:09:14;;;;;;;;;;;;;;;;;;5073230;28;19981;-83
2021/04/18 15:11:41;;;;;;;;;;;;;;;;;;5064775;28;20482;-82
2021/04/18 15:16:59;;;;;;;;;;;;;;;;;;5078755;28;20285;-82
2021/04/18 15:19:27;;;;;;;;;;;;;;;;;;5084385;28;19928;-81
2021/04/18 15:21:53;;;;;;;;;;;;;;;;;;5085873;28;20019;-81
2021/04/18 15:24:21;;;;;;;;;;;;;;;;;;5081368;28;20018;-81
2021/04/18 15:26:49;;;;;;;;;;;;;;;;;;5084060;28;19974;-81
2021/04/18 15:29:16;;;;;;;;;;;;;;;;;;5088726;28;19924;-81
2021/04/18 15:31:43;;;;;;;;;;;;;;;;;;5088353;28;19930;-79
2021/04/18 15:34:10;;;;;;;;;;;;;;;;;;5086026;28;19974;-80
2021/04/18 15:39:14;;;;;;;;;;;;;;;;;;5085690;28;19967;-84
2021/04/18 15:41:41;;;;;;;;;;;;;;;;;;5081676;28;19968;-84
2021/04/18 15:44:14;;;;;;;;;;;;;;;;;;5088836;28;19973;-84
2021/04/18 15:46:42;;;;;;;;;;;;;;;;;;5091893;28;20402;-85
2021/04/18 15:49:11;;;;;;;;;;;;;;;;;;5091267;28;19998;-86
2021/04/18 15:54:50;;;;;;;;;;;;;;;;;;5069068;23;19935;-80
2021/04/18 15:57:19;;;;;;;;;;;;;;;;;;5063993;28;19968;-80
2021/04/18 15:59:48;;;;;;;;;;;;;;;;;;5084070;28;19975;-80
2021/04/18 16:02:16;;;;;;;;;;;;;;;;;;5065186;28;19929;-80
2021/04/18 16:04:43;;;;;;;;;;;;;;;;;;5065871;28;19925;-80
2021/04/18 16:07:12;;;;;;;;;;;;;;;;;;5071531;28;19963;-80
2021/04/18 16:09:41;;;;;;;;;;;;;;;;;;5068257;28;19970;-80
2021/04/18 16:12:08;;;;;;;;;;;;;;;;;;5073189;28;20527;-81
2021/04/18 16:14:36;;;;;;;;;;;;;;;;;;5063684;28;19925;-82
2021/04/18 16:17:04;;;;;;;;;;;;;;;;;;5066819;28;20428;-82
2021/04/18 16:19:31;;;;;;;;;;;;;;;;;;5067292;28;20014;-83
2021/04/18 16:22:02;;;;;;;;;;;;;;;;;;5066756;28;20568;-82
2021/04/18 16:24:34;;;;;;;;;;;;;;;;;;5064870;28;19994;-82
2021/04/18 16:27:02;;;;;;;;;;;;;;;;;;5067010;28;20769;-82
2021/04/18 16:29:31;;;;;;;;;;;;;;;;;;5084487;28;19936;-80
2021/04/18 16:31:58;;;;;;;;;;;;;;;;;;5066808;28;20357;-82
2021/04/18 16:34:27;;;;;;;;;;;;;;;;;;5070018;28;19932;-82
2021/04/18 16:36:56;;;;;;;;;;;;;;;;;;5069224;28;19930;-82
2021/04/18 16:39:24;;;;;;;;;;;;;;;;;;5065822;28;19968;-82
2021/04/18 16:41:51;;;;;;;;;;;;;;;;;;5061480;28;20039;-83
2021/04/18 16:44:17;;;;;;;;;;;;;;;;;;5067644;28;19972;-82
2021/04/18 16:46:47;;;;;;;;;;;;;;;;;;5064753;28;19968;-80
2021/04/18 16:49:16;;;;;;;;;;;;;;;;;;5066090;28;19928;-80
2021/04/18 16:51:43;;;;;;;;;;;;;;;;;;5068880;28;19932;-80
2021/04/18 16:54:10;;;;;;;;;;;;;;;;;;5065947;28;19924;-80
2021/04/18 16:56:40;;;;;;;;;;;;;;;;;;5063107;28;20019;-80
2021/04/18 16:59:08;;;;;;;;;;;;;;;;;;5064545;28;19978;-80
2021/04/18 17:01:37;;;;;;;;;;;;;;;;;;5061370;28;19924;-80
2021/04/18 17:04:05;;;;;;;;;;;;;;;;;;5066623;28;19929;-80